Time;durP1;ratioP1;P1;durP2;ratioP2;P2;SDS_P1;SDS_P2;PMS_P1;PMS_P2;Temp;Humidity;BMP_temperature;BMP_pressure;BME280_temperature;BME280_humidity;BME280_pressure;Samples;Min_cycle;Max_cycle;Signal;HPM_P1;HPM_P2
2023/04/11 00:02:22;;;;;;;3.73;1.53;;;;;;;17.39;38.19;97050.44;5052837;28;20207;-71
2023/04/11 00:04:47;;;;;;;1.77;1.63;;;;;;;17.26;38.48;97048.53;5058950;28;20659;-67
2023/04/11 00:07:13;;;;;;;3.03;1.80;;;;;;;17.26;38.58;97022.06;5000259;28;20191;-70
2023/04/11 00:09:39;;;;;;;1.50;1.40;;;;;;;17.25;38.52;97015.97;5036145;28;20772;-70
2023/04/11 00:12:05;;;;;;;6.57;1.73;;;;;;;17.27;38.44;97002.50;5047755;28;20798;-72
2023/04/11 00:14:32;;;;;;;5.00;1.70;;;;;;;17.26;38.35;96999.06;5055409;28;20210;-70
2023/04/11 00:16:59;;;;;;;3.80;1.90;;;;;;;17.33;38.24;96989.28;5050952;28;20433;-70
2023/04/11 00:19:28;;;;;;;2.40;1.50;;;;;;;17.28;38.24;96993.53;5044402;28;21300;-70
2023/04/11 00:21:59;;;;;;;2.67;1.90;;;;;;;17.35;38.33;96979.31;5051500;28;20410;-71
2023/04/11 00:24:25;;;;;;;3.60;2.00;;;;;;;17.29;38.84;96989.88;5058977;28;20427;-71
2023/04/11 00:26:51;;;;;;;5.37;1.93;;;;;;;17.11;39.43;96985.16;5047891;28;20465;-69
2023/04/11 00:29:17;;;;;;;2.50;1.50;;;;;;;17.06;39.33;96974.34;5050271;28;20460;-70
2023/04/11 00:31:42;;;;;;;3.60;1.90;;;;;;;17.17;39.32;96981.69;5037152;28;20421;-71
2023/04/11 00:34:08;;;;;;;3.93;1.57;;;;;;;17.21;38.85;96977.63;5050638;28;20262;-70
2023/04/11 00:36:33;;;;;;;3.10;1.90;;;;;;;17.12;38.82;96963.75;5046929;28;20238;-70
2023/04/11 00:39:00;;;;;;;3.60;1.80;;;;;;;17.23;38.80;96970.31;5034968;28;20219;-70
2023/04/11 00:41:25;;;;;;;1.73;1.63;;;;;;;17.25;38.80;96973.59;5041391;28;20608;-70
2023/04/11 00:43:53;;;;;;;3.10;1.50;;;;;;;17.14;38.73;96982.09;5055172;28;20457;-69
2023/04/11 00:46:18;;;;;;;2.00;1.50;;;;;;;17.29;38.58;96979.28;5060631;28;20182;-69
2023/04/11 00:48:44;;;;;;;4.13;1.70;;;;;;;17.23;38.81;96983.56;5041539;28;20570;-70
2023/04/11 00:51:09;;;;;;;4.00;1.70;;;;;;;17.35;38.77;96967.88;5048676;28;20320;-70
2023/04/11 00:53:36;;;;;;;2.17;1.80;;;;;;;17.40;39.22;96964.63;5048040;28;20225;-71
2023/04/11 00:56:02;;;;;;;6.93;1.73;;;;;;;17.29;39.18;96958.09;5044259;28;20179;-70
2023/04/11 00:58:28;;;;;;;3.83;1.80;;;;;;;17.27;39.42;96958.28;5048550;28;20409;-70
2023/04/11 01:00:53;;;;;;;1.50;1.40;;;;;;;17.10;39.31;96965.78;5051519;28;20958;-71
2023/04/11 01:03:20;;;;;;;2.30;2.10;;;;;;;17.19;39.25;96963.78;5056253;28;20684;-69
2023/04/11 01:05:48;;;;;;;2.00;1.70;;;;;;;17.16;39.79;96959.72;5055536;28;20209;-72
2023/04/11 01:08:14;;;;;;;5.00;2.00;;;;;;;17.18;39.97;96962.16;5050651;28;20422;-70
2023/04/11 01:10:40;;;;;;;3.83;1.80;;;;;;;17.15;40.20;96973.97;5046089;28;20544;-70
2023/04/11 01:13:06;;;;;;;4.83;1.90;;;;;;;17.11;40.26;96971.91;5060830;28;20651;-71
2023/04/11 01:15:31;;;;;;;3.10;1.93;;;;;;;16.97;40.65;96974.53;5051582;28;20445;-70
2023/04/11 01:18:00;;;;;;;2.97;1.70;;;;;;;17.16;40.15;96972.13;5043059;28;20193;-69
2023/04/11 01:20:26;;;;;;;3.80;2.03;;;;;;;17.16;40.21;96972.13;5045941;28;20285;-69
2023/04/11 01:22:52;;;;;;;3.60;1.77;;;;;;;17.22;40.12;96978.44;5048334;28;20457;-69
2023/04/11 01:25:20;;;;;;;2.20;1.70;;;;;;;17.11;40.32;96967.44;5054377;28;20175;-69
2023/04/11 01:27:47;;;;;;;2.80;1.73;;;;;;;17.29;40.14;96980.09;5049197;28;20414;-69
2023/04/11 01:30:12;;;;;;;2.90;1.70;;;;;;;17.19;40.91;96984.97;5049523;28;20446;-69
2023/04/11 01:32:38;;;;;;;2.63;1.77;;;;;;;17.28;41.47;96996.19;5040820;28;20439;-70
2023/04/11 01:35:04;;;;;;;2.10;1.90;;;;;;;17.18;43.27;97000.06;5032765;28;20266;-70
2023/04/11 01:37:30;;;;;;;2.30;1.83;;;;;;;17.19;43.28;97003.50;5048170;28;20186;-71
2023/04/11 01:39:55;;;;;;;2.13;1.83;;;;;;;17.17;44.01;96987.00;5046178;28;20529;-70
2023/04/11 01:42:21;;;;;;;2.17;1.90;;;;;;;17.15;44.36;96991.66;5042892;28;20692;-70
2023/04/11 01:44:49;;;;;;;1.83;1.73;;;;;;;17.09;44.54;96984.53;5055302;28;20175;-69
2023/04/11 01:47:15;;;;;;;3.73;1.97;;;;;;;16.90;44.97;96971.00;5045154;28;20491;-69
2023/04/11 01:49:41;;;;;;;2.57;1.97;;;;;;;16.86;45.20;96980.38;5051151;28;20862;-69
2023/04/11 01:52:06;;;;;;;3.67;1.70;;;;;;;16.91;45.38;96982.41;5041898;28;20229;-70
2023/04/11 01:54:32;;;;;;;2.13;1.83;;;;;;;16.85;45.97;96990.13;5043411;28;20522;-70
2023/04/11 01:56:57;;;;;;;7.23;2.03;;;;;;;16.81;46.22;96999.47;5041273;28;20269;-70
2023/04/11 01:59:23;;;;;;;2.47;1.90;;;;;;;16.68;46.58;97002.88;5048974;28;20238;-71
2023/04/11 02:01:48;;;;;;;2.50;1.90;;;;;;;16.69;47.18;97001.06;5049411;28;20625;-70
2023/04/11 02:04:13;;;;;;;1.80;1.70;;;;;;;16.69;47.21;97015.09;5048929;28;20373;-69
2023/04/11 02:06:39;;;;;;;6.20;1.70;;;;;;;16.65;47.53;97016.47;5054099;28;20271;-69
2023/04/11 02:09:04;;;;;;;1.67;1.57;;;;;;;16.66;47.97;97017.31;5048936;28;20191;-69
2023/04/11 02:11:30;;;;;;;2.07;1.90;;;;;;;16.61;49.05;97036.41;5047658;28;20179;-70
2023/04/11 02:13:55;;;;;;;2.83;2.00;;;;;;;16.61;50.37;97052.28;5045709;28;20174;-69
2023/04/11 02:16:24;;;;;;;3.40;2.23;;;;;;;16.56;51.07;97046.75;5039094;28;20727;-68
2023/04/11 02:18:50;;;;;;;1.90;1.70;;;;;;;16.49;52.11;97049.38;5047241;28;20218;-69
2023/04/11 02:21:16;;;;;;;1.90;1.80;;;;;;;16.41;53.08;97060.91;5058852;28;20414;-70
2023/04/11 02:23:41;;;;;;;5.73;1.50;;;;;;;16.38;53.92;97085.09;5044673;28;20446;-69
2023/04/11 02:26:07;;;;;;;3.57;1.87;;;;;;;16.25;54.11;97085.00;5038683;28;20265;-71
2023/04/11 02:28:32;;;;;;;5.20;1.80;;;;;;;16.02;54.22;97091.31;5054360;28;20672;-71
2023/04/11 02:30:58;;;;;;;4.80;1.40;;;;;;;15.90;54.64;97088.38;5044364;28;20194;-72
2023/04/11 02:33:23;;;;;;;3.10;1.20;;;;;;;15.79;54.97;97065.06;5048646;28;20175;-71
2023/04/11 02:35:49;;;;;;;1.70;1.23;;;;;;;15.70;55.81;97066.16;5037845;28;20262;-69
2023/04/11 02:38:14;;;;;;;2.23;1.20;;;;;;;15.66;55.62;97060.44;5039411;28;20191;-69
2023/04/11 02:40:40;;;;;;;8.53;1.60;;;;;;;15.57;55.43;97056.31;5050578;28;20291;-70
2023/04/11 02:43:05;;;;;;;1.73;1.13;;;;;;;15.58;55.51;97071.94;5038644;28;20622;-70
2023/04/11 02:45:31;;;;;;;3.47;1.17;;;;;;;15.44;55.81;97073.66;5050823;28;20194;-70
2023/04/11 02:47:57;;;;;;;1.97;1.10;;;;;;;15.42;55.75;97075.66;5056339;28;20190;-69
2023/04/11 02:50:25;;;;;;;3.00;1.40;;;;;;;15.35;55.74;97083.50;5045682;28;20261;-71
2023/04/11 02:52:51;;;;;;;1.60;1.00;;;;;;;15.33;56.29;97082.06;5051952;28;20417;-70
2023/04/11 02:55:17;;;;;;;2.07;1.00;;;;;;;15.29;56.13;97086.06;5044561;28;20429;-69
2023/04/11 02:57:42;;;;;;;1.50;1.20;;;;;;;15.18;56.91;97085.53;5044822;28;20447;-70
2023/04/11 03:00:08;;;;;;;2.47;1.40;;;;;;;15.10;57.14;97080.38;5046785;28;20199;-71
2023/04/11 03:02:34;;;;;;;2.10;0.93;;;;;;;15.07;57.61;97087.81;5048026;28;20710;-70
2023/04/11 03:05:02;;;;;;;1.43;0.90;;;;;;;15.00;57.85;97079.81;5039972;28;20546;-70
2023/04/11 03:07:31;;;;;;;3.00;1.10;;;;;;;15.06;58.13;97076.44;5037686;28;20556;-70
2023/04/11 03:09:56;;;;;;;2.40;0.97;;;;;;;15.09;57.68;97076.09;5030378;28;20450;-68
2023/04/11 03:12:22;;;;;;;1.40;1.00;;;;;;;15.02;58.09;97080.44;5048628;28;20402;-66
2023/04/11 03:14:47;;;;;;;1.87;0.90;;;;;;;14.99;57.57;97086.91;5057770;28;20841;-70
2023/04/11 03:17:12;;;;;;;1.60;0.80;;;;;;;15.02;57.56;97088.38;5052158;28;20211;-70
2023/04/11 03:19:38;;;;;;;0.90;0.80;;;;;;;15.01;57.33;97094.66;5048177;28;20195;-70
2023/04/11 03:22:04;;;;;;;1.90;0.80;;;;;;;15.00;57.11;97088.56;5044917;28;20195;-71
2023/04/11 03:24:31;;;;;;;3.20;0.90;;;;;;;14.91;57.55;97084.38;5032315;28;20195;-72
2023/04/11 03:26:57;;;;;;;2.23;0.70;;;;;;;14.90;57.55;97077.47;5041630;28;20430;-69
2023/04/11 03:29:22;;;;;;;2.90;1.00;;;;;;;14.86;57.64;97050.66;5050577;28;20846;-70
2023/04/11 03:31:48;;;;;;;4.73;0.93;;;;;;;14.88;57.45;97053.09;5033017;28;20195;-69
2023/04/11 03:34:13;;;;;;;2.13;1.23;;;;;;;14.85;57.54;97043.72;5040503;28;20193;-69
2023/04/11 03:36:39;;;;;;;2.47;1.27;;;;;;;14.83;57.35;97042.25;5034147;28;20183;-69
2023/04/11 03:39:04;;;;;;;2.30;2.03;;;;;;;14.76;57.82;97038.72;5053558;28;20228;-70
2023/04/11 03:41:30;;;;;;;4.47;2.27;;;;;;;14.76;57.79;97044.81;5043620;28;20179;-70
2023/04/11 03:43:55;;;;;;;3.07;1.90;;;;;;;14.73;58.37;97037.28;5045993;28;20253;-69
2023/04/11 03:46:21;;;;;;;3.10;1.97;;;;;;;14.77;58.14;97050.91;5040588;28;20554;-68
2023/04/11 03:48:46;;;;;;;7.10;3.63;;;;;;;14.82;57.59;97044.09;5051981;28;20188;-70
2023/04/11 03:51:12;;;;;;;8.60;4.23;;;;;;;14.83;57.66;97042.25;5050680;28;20227;-70
2023/04/11 03:53:37;;;;;;;5.37;2.40;;;;;;;14.81;57.96;97057.44;5046888;28;20547;-70
2023/04/11 03:56:03;;;;;;;4.37;1.93;;;;;;;14.73;57.79;97055.75;5041721;28;20186;-70
2023/04/11 03:58:29;;;;;;;3.33;1.80;;;;;;;14.52;58.62;97072.25;5047675;28;20183;-70
2023/04/11 04:00:54;;;;;;;3.30;2.20;;;;;;;14.59;58.66;97075.78;5048791;28;20915;-69
2023/04/11 04:03:20;;;;;;;3.43;2.00;;;;;;;14.58;58.44;97088.16;5050991;28;20210;-69
2023/04/11 04:05:45;;;;;;;2.73;1.10;;;;;;;14.59;58.57;97097.72;5046927;28;20190;-69
2023/04/11 04:08:12;;;;;;;2.17;1.00;;;;;;;14.54;58.83;97089.53;5040118;28;20230;-69
2023/04/11 04:10:37;;;;;;;3.40;1.30;;;;;;;14.57;59.10;97090.97;5033120;28;20196;-70
2023/04/11 04:13:03;;;;;;;2.10;1.50;;;;;;;14.57;59.02;97097.06;5047596;28;20492;-70
2023/04/11 04:15:28;;;;;;;2.10;1.30;;;;;;;14.61;58.59;97094.91;5040225;28;20186;-70
2023/04/11 04:17:54;;;;;;;7.17;1.40;;;;;;;14.49;59.04;97091.88;5041005;28;20183;-71
2023/04/11 04:20:19;;;;;;;2.73;0.97;;;;;;;14.51;58.62;97100.41;5043476;28;20623;-69
2023/04/11 04:22:46;;;;;;;3.90;1.10;;;;;;;14.56;58.43;97107.78;5051830;28;20244;-70
2023/04/11 04:25:14;;;;;;;3.97;1.10;;;;;;;14.52;58.28;97115.25;5045369;28;20183;-69
2023/04/11 04:27:43;;;;;;;2.23;1.10;;;;;;;14.52;58.11;97115.25;5046967;28;20422;-70
2023/04/11 04:30:10;;;;;;;2.60;0.90;;;;;;;14.49;58.03;97118.22;5048387;28;20532;-68
2023/04/11 04:32:35;;;;;;;3.23;0.90;;;;;;;14.49;58.06;97109.50;5048377;28;20418;-69
2023/04/11 04:35:01;;;;;;;2.50;1.30;;;;;;;14.46;57.91;97126.53;5038666;28;21165;-69
2023/04/11 04:37:26;;;;;;;2.03;0.80;;;;;;;14.37;57.94;97135.47;5045795;28;20267;-69
2023/04/11 04:39:53;;;;;;;1.03;0.80;;;;;;;14.38;58.04;97148.50;5057061;28;20736;-71
2023/04/11 04:42:20;;;;;;;1.80;0.90;;;;;;;14.26;57.65;97145.47;5037372;28;20652;-69
2023/04/11 04:44:46;;;;;;;2.50;1.10;;;;;;;14.20;57.72;97162.00;5051389;28;20412;-70
2023/04/11 04:47:11;;;;;;;1.13;0.80;;;;;;;14.20;58.16;97167.25;5052462;28;20430;-69
2023/04/11 04:49:37;;;;;;;2.83;0.90;;;;;;;14.23;57.96;97166.91;5040806;28;20203;-70
2023/04/11 04:52:02;;;;;;;2.00;0.90;;;;;;;14.21;57.61;97168.91;5032888;28;20186;-70
2023/04/11 04:54:30;;;;;;;2.50;0.90;;;;;;;14.20;57.69;97167.25;5038827;28;20183;-69
2023/04/11 04:56:55;;;;;;;3.93;1.17;;;;;;;14.16;58.31;97175.69;5040477;28;20172;-69
2023/04/11 04:59:21;;;;;;;4.03;1.03;;;;;;;14.21;58.28;97165.44;5042577;28;20493;-70
2023/04/11 05:01:50;;;;;;;1.53;0.90;;;;;;;14.22;58.17;97173.19;5055836;28;20171;-70
2023/04/11 05:04:16;;;;;;;3.97;1.53;;;;;;;14.09;57.86;97178.22;5037144;28;20468;-71
2023/04/11 05:06:41;;;;;;;1.83;0.87;;;;;;;14.10;57.74;97183.31;5039439;28;20418;-71
2023/04/11 05:09:07;;;;;;;1.90;0.73;;;;;;;14.06;57.64;97200.44;5044028;28;20213;-69
2023/04/11 05:11:32;;;;;;;2.07;0.87;;;;;;;14.10;57.73;97219.41;5035796;28;20175;-71
2023/04/11 05:13:58;;;;;;;1.63;0.60;;;;;;;14.07;57.94;97212.63;5053873;28;20497;-71
2023/04/11 05:16:23;;;;;;;1.30;0.77;;;;;;;13.98;57.87;97224.22;5037218;28;20184;-70
2023/04/11 05:18:49;;;;;;;4.80;0.80;;;;;;;13.94;57.73;97234.28;5044088;28;20199;-70
2023/04/11 05:21:14;;;;;;;1.00;0.80;;;;;;;13.78;57.42;97227.31;5049271;28;20700;-70
2023/04/11 05:23:40;;;;;;;3.67;1.03;;;;;;;13.69;56.42;97244.09;5042470;28;20230;-69
2023/04/11 05:26:06;;;;;;;1.87;0.93;;;;;;;13.62;57.38;97246.59;5040639;28;20186;-69
2023/04/11 05:28:32;;;;;;;3.83;1.00;;;;;;;13.62;57.20;97232.63;5047371;28;20309;-70
2023/04/11 05:30:57;;;;;;;1.70;0.93;;;;;;;13.62;56.92;97228.16;5037323;28;21001;-69
2023/04/11 05:33:23;;;;;;;2.30;0.70;;;;;;;13.56;56.64;97228.88;5048944;28;20313;-70
2023/04/11 05:35:49;;;;;;;1.50;0.80;;;;;;;13.49;56.17;97222.63;5045364;28;20571;-70
2023/04/11 05:38:15;;;;;;;1.77;0.83;;;;;;;13.50;56.61;97219.00;5037030;28;20289;-70
2023/04/11 05:40:41;;;;;;;4.30;1.00;;;;;;;13.38;55.09;97215.91;5061681;28;20517;-69
2023/04/11 05:43:07;;;;;;;3.63;1.20;;;;;;;13.39;55.03;97216.72;5045637;28;20195;-70
2023/04/11 05:45:32;;;;;;;2.20;0.80;;;;;;;13.36;55.29;97216.06;5066672;28;20272;-70
2023/04/11 05:47:58;;;;;;;3.60;1.03;;;;;;;13.28;54.32;97223.19;5047782;28;20429;-70
2023/04/11 05:50:24;;;;;;;4.57;1.00;;;;;;;13.22;54.16;97219.41;5049403;28;20298;-70
2023/04/11 05:52:50;;;;;;;3.20;1.03;;;;;;;13.19;54.75;97214.47;5036215;28;20175;-71
2023/04/11 05:55:15;;;;;;;1.33;0.80;;;;;;;13.22;55.45;97214.16;5045629;28;20991;-70
2023/04/11 05:57:41;;;;;;;2.90;0.80;;;;;;;13.23;54.29;97221.06;5040958;28;20550;-70
2023/04/11 06:00:15;;;;;;;2.77;0.90;;;;;;;13.23;53.75;97222.84;5049675;28;20922;-70
2023/04/11 06:02:41;;;;;;;1.43;0.80;;;;;;;13.20;53.87;97239.81;5041178;28;20211;-70
2023/04/11 06:05:10;;;;;;;3.60;0.80;;;;;;;13.12;53.17;97237.19;5051809;28;20470;-70
2023/04/11 06:07:35;;;;;;;2.77;0.90;;;;;;;13.14;53.33;97229.94;5040389;28;20429;-70
2023/04/11 06:10:00;;;;;;;2.20;0.83;;;;;;;13.12;52.71;97231.91;5041519;28;20446;-72
2023/04/11 06:12:27;;;;;;;1.80;1.13;;;;;;;13.15;53.05;97235.06;5047964;28;20186;-70
2023/04/11 06:14:52;;;;;;;2.00;0.60;;;;;;;13.14;52.85;97235.19;5042441;28;20223;-70
2023/04/11 06:17:18;;;;;;;3.67;0.80;;;;;;;13.18;53.13;97226.81;5038511;28;20448;-69
2023/04/11 06:19:43;;;;;;;1.60;0.73;;;;;;;13.21;52.97;97231.75;5035696;28;20203;-71
2023/04/11 06:22:09;;;;;;;3.90;0.90;;;;;;;13.19;53.15;97233.72;5035330;28;20187;-69
2023/04/11 06:24:39;;;;;;;2.27;0.93;;;;;;;13.17;53.42;97240.13;5036599;28;20308;-70
2023/04/11 06:27:05;;;;;;;2.83;1.40;;;;;;;13.09;53.62;97243.59;5040853;28;20184;-70
2023/04/11 06:29:31;;;;;;;6.20;1.27;;;;;;;13.10;54.09;97247.06;5040694;28;21007;-69
2023/04/11 06:31:57;;;;;;;2.53;1.20;;;;;;;13.11;54.51;97246.91;5038154;28;20441;-70
2023/04/11 06:34:23;;;;;;;4.63;1.13;;;;;;;13.11;54.59;97249.53;5043017;28;20183;-71
2023/04/11 06:36:48;;;;;;;4.27;1.37;;;;;;;13.16;54.57;97254.28;5042321;28;20989;-70
2023/04/11 06:39:17;;;;;;;2.90;0.90;;;;;;;12.99;54.34;97280.59;5010596;28;20670;-71
2023/04/11 06:41:44;;;;;;;1.57;0.90;;;;;;;13.05;54.31;97274.69;5029565;28;20179;-70
2023/04/11 06:44:09;;;;;;;2.30;0.90;;;;;;;13.05;54.32;97274.69;5039234;28;20520;-70
2023/04/11 06:46:35;;;;;;;1.37;0.90;;;;;;;13.00;54.83;97269.09;5043748;28;20430;-72
2023/04/11 06:49:02;;;;;;;2.90;0.93;;;;;;;13.05;53.92;97285.22;5026228;28;20194;-71
2023/04/11 06:51:27;;;;;;;2.60;1.00;;;;;;;13.01;53.95;97299.69;5028710;28;20547;-71
2023/04/11 06:53:53;;;;;;;2.70;1.13;;;;;;;13.04;53.86;97291.47;5038012;28;20426;-73
2023/04/11 06:56:18;;;;;;;7.03;1.37;;;;;;;13.13;53.98;97291.44;5044758;28;20582;-70
2023/04/11 06:58:44;;;;;;;1.50;0.97;;;;;;;13.15;53.59;97295.56;5043723;28;20187;-71
2023/04/11 07:01:10;;;;;;;2.83;1.00;;;;;;;13.12;53.26;97316.13;5034877;28;20210;-73
2023/04/11 07:03:35;;;;;;;4.50;1.03;;;;;;;13.12;54.14;97301.16;5044764;28;20287;-71
2023/04/11 07:06:01;;;;;;;4.23;1.33;;;;;;;13.23;54.43;97291.28;5039954;28;20275;-70
2023/04/11 07:08:26;;;;;;;3.10;1.20;;;;;;;13.25;54.47;97300.63;5039120;28;20557;-68
2023/04/11 07:10:52;;;;;;;3.53;1.30;;;;;;;13.21;54.13;97299.34;5033812;28;20204;-71
2023/04/11 07:13:19;;;;;;;2.63;1.40;;;;;;;13.17;53.95;97298.03;5035627;28;20667;-70
2023/04/11 07:15:44;;;;;;;4.00;1.40;;;;;;;13.09;53.57;97296.22;5031103;28;20180;-69
2023/04/11 07:18:10;;;;;;;1.60;1.10;;;;;;;13.10;54.30;97307.59;5035202;28;20526;-70
2023/04/11 07:20:35;;;;;;;2.53;1.00;;;;;;;13.00;54.01;97316.44;5035741;28;20264;-69
2023/04/11 07:23:02;;;;;;;2.00;1.10;;;;;;;13.14;54.24;97324.66;5047543;28;20559;-70
2023/04/11 07:25:32;;;;;;;2.73;1.50;;;;;;;13.17;54.21;97327.78;5055833;28;20186;-69
2023/04/11 07:27:59;;;;;;;2.30;1.47;;;;;;;13.30;54.22;97334.34;5045341;28;20502;-69
2023/04/11 07:30:24;;;;;;;3.93;1.40;;;;;;;13.36;54.44;97323.97;5043662;28;20445;-70
2023/04/11 07:32:50;;;;;;;3.37;1.40;;;;;;;13.25;53.28;97334.84;5048162;28;20959;-68
2023/04/11 07:35:15;;;;;;;1.70;1.00;;;;;;;13.31;52.89;97326.31;5036174;28;20700;-70
2023/04/11 07:37:41;;;;;;;3.93;1.07;;;;;;;13.39;53.56;97338.63;5048403;28;20613;-71
2023/04/11 07:40:10;;;;;;;3.10;1.20;;;;;;;13.43;53.38;97339.97;5033066;28;20210;-69
2023/04/11 07:42:36;;;;;;;7.13;1.47;;;;;;;13.54;53.38;97325.63;5059446;28;20210;-71
2023/04/11 07:45:01;;;;;;;6.00;1.40;;;;;;;13.55;53.15;97334.34;5050269;28;20440;-69
2023/04/11 07:47:27;;;;;;;8.10;1.90;;;;;;;13.82;52.89;97335.78;5047230;28;20177;-70
2023/04/11 07:49:52;;;;;;;5.73;1.20;;;;;;;14.07;53.04;97330.41;5043939;28;20627;-69
2023/04/11 07:52:18;;;;;;;9.67;1.57;;;;;;;14.23;51.95;97337.41;5042152;28;20252;-69
2023/04/11 07:54:43;;;;;;;4.80;1.60;;;;;;;14.49;51.60;97339.72;5039184;28;20770;-69
2023/04/11 07:57:08;;;;;;;5.50;1.33;;;;;;;14.77;51.47;97341.09;5043030;28;20720;-70
2023/04/11 07:59:34;;;;;;;6.63;1.77;;;;;;;14.99;50.48;97319.16;5033211;28;20207;-71
2023/04/11 08:02:00;;;;;;;4.63;1.30;;;;;;;15.29;48.81;97335.06;5049408;28;20240;-69
2023/04/11 08:04:31;;;;;;;3.70;1.33;;;;;;;15.41;48.03;97343.34;5047314;28;20872;-70
2023/04/11 08:06:57;;;;;;;2.93;1.07;;;;;;;15.47;47.29;97353.22;5045871;28;20190;-71
2023/04/11 08:09:22;;;;;;;6.10;1.50;;;;;;;15.58;47.01;97348.50;5044307;28;20429;-69
2023/04/11 08:11:47;;;;;;;4.83;1.50;;;;;;;15.59;46.08;97347.50;5038779;28;20192;-70
2023/04/11 08:14:13;;;;;;;6.67;1.67;;;;;;;15.47;45.89;97353.22;5058258;28;20269;-70
2023/04/11 08:16:38;;;;;;;2.60;1.23;;;;;;;15.43;45.74;97346.66;5042427;28;20241;-70
2023/04/11 08:19:04;;;;;;;6.50;1.57;;;;;;;15.39;44.82;97370.94;5043721;28;20495;-70
2023/04/11 08:21:30;;;;;;;10.10;1.70;;;;;;;15.25;43.97;97357.53;5048811;28;20356;-71
2023/04/11 08:23:55;;;;;;;4.10;1.20;;;;;;;15.13;44.68;97351.03;5055693;28;20204;-71
2023/04/11 08:26:21;;;;;;;4.37;1.30;;;;;;;15.22;45.37;97365.00;5047609;28;20422;-70
2023/04/11 08:28:46;;;;;;;4.87;1.23;;;;;;;15.17;45.40;97368.97;5033939;28;20188;-70
2023/04/11 08:31:11;;;;;;;5.63;1.23;;;;;;;15.19;45.69;97367.00;5049130;28;20215;-70
2023/04/11 08:33:38;;;;;;;3.00;1.20;;;;;;;15.22;45.15;97359.72;5042130;28;20691;-70
2023/04/11 08:36:08;;;;;;;6.40;1.43;;;;;;;15.15;44.25;97357.78;5048698;28;20194;-69
2023/04/11 08:38:34;;;;;;;4.53;1.53;;;;;;;15.19;43.93;97356.44;5040454;28;20426;-71
2023/04/11 08:40:59;;;;;;;5.40;1.20;;;;;;;15.14;42.84;97369.34;5059631;28;20472;-69
2023/04/11 08:43:25;;;;;;;8.60;1.77;;;;;;;15.30;42.93;97362.28;5057180;28;20207;-70
2023/04/11 08:45:50;;;;;;;3.93;1.20;;;;;;;15.42;42.34;97370.59;5057421;28;20187;-72
2023/04/11 08:48:16;;;;;;;5.33;1.50;;;;;;;15.42;41.32;97366.13;5068184;28;20187;-70
2023/04/11 08:50:43;;;;;;;6.53;1.87;;;;;;;15.61;41.79;97361.34;5069269;28;20209;-71
2023/04/11 08:53:08;;;;;;;6.27;1.33;;;;;;;15.70;41.31;97357.59;5057295;28;20183;-71
2023/04/11 08:55:34;;;;;;;6.93;1.47;;;;;;;15.58;41.05;97351.94;5056094;28;20429;-71
2023/04/11 08:58:01;;;;;;;6.03;1.60;;;;;;;15.49;40.63;97364.44;5046723;28;20183;-69
2023/04/11 09:00:28;;;;;;;9.07;1.50;;;;;;;15.58;40.66;97369.63;5054159;28;20449;-70
2023/04/11 09:03:01;;;;;;;2.73;1.20;;;;;;;15.73;39.89;97365.19;5065131;28;20456;-70
2023/04/11 09:05:30;;;;;;;3.50;1.30;;;;;;;15.79;39.32;97374.19;5044559;28;20418;-71
2023/04/11 09:07:57;;;;;;;4.27;1.20;;;;;;;15.93;39.11;97368.13;5041469;28;20420;-71
2023/04/11 09:10:23;;;;;;;4.90;1.50;;;;;;;16.16;38.20;97371.66;5039006;28;20505;-70
2023/04/11 09:12:49;;;;;;;4.00;1.57;;;;;;;16.46;37.58;97366.34;5041197;28;20465;-69
2023/04/11 09:15:20;;;;;;;4.47;1.30;;;;;;;16.50;38.01;97359.69;5044031;28;20426;-69
2023/04/11 09:17:45;;;;;;;6.23;1.50;;;;;;;16.48;37.86;97365.13;5033239;28;20193;-70
2023/04/11 09:20:30;;;;;;;4.40;1.20;;;;;;;16.52;38.26;97360.28;5042261;28;20540;-71
2023/04/11 09:22:57;;;;;;;3.90;1.50;;;;;;;16.63;37.87;97351.88;5049552;28;20214;-70
2023/04/11 09:25:23;;;;;;;3.53;1.43;;;;;;;16.71;38.23;97353.56;5040631;28;20422;-71
2023/04/11 09:27:49;;;;;;;6.93;1.40;;;;;;;16.72;38.45;97357.84;5054202;28;20469;-71
2023/04/11 09:30:25;;;;;;;4.97;1.57;;;;;;;16.80;38.27;97357.75;5037652;28;20207;-71
2023/04/11 09:32:52;;;;;;;3.57;1.53;;;;;;;16.80;37.13;97354.28;5038221;28;20801;-69
2023/04/11 09:35:27;;;;;;;6.93;1.67;;;;;;;16.73;37.59;97365.63;5041711;28;20426;-70
2023/04/11 09:37:52;;;;;;;5.87;1.37;;;;;;;16.69;36.42;97361.72;5047062;28;20418;-69
2023/04/11 09:40:20;;;;;;;5.00;1.30;;;;;;;16.67;36.60;97370.84;5040765;28;20490;-70
2023/04/11 09:42:47;;;;;;;4.40;1.37;;;;;;;16.78;36.68;97370.34;5044886;28;20264;-70
2023/04/11 09:45:20;;;;;;;8.03;2.40;;;;;;;16.77;38.12;97378.47;5043357;28;20475;-71
2023/04/11 09:47:46;;;;;;;3.83;1.40;;;;;;;16.70;37.51;97368.63;5034841;28;20422;-72
2023/04/11 09:50:12;;;;;;;5.07;1.33;;;;;;;16.68;37.61;97362.72;5042692;28;20444;-71
2023/04/11 09:52:42;;;;;;;3.93;1.87;;;;;;;16.56;37.34;97358.91;5040290;28;21122;-70
2023/04/11 09:55:10;;;;;;;7.50;1.80;;;;;;;16.52;37.17;97362.94;5031912;28;20414;-71
2023/04/11 09:57:39;;;;;;;3.93;1.33;;;;;;;16.44;37.64;97366.53;5048178;28;20422;-71
2023/04/11 10:00:13;;;;;;;4.63;1.60;;;;;;;16.34;36.84;97368.63;5033173;28;20437;-71
2023/04/11 10:02:39;;;;;;;4.60;1.37;;;;;;;16.41;37.47;97369.53;5038409;28;20211;-71
2023/04/11 10:05:06;;;;;;;8.73;1.67;;;;;;;16.42;37.79;97353.47;5037429;28;20509;-71
2023/04/11 10:07:33;;;;;;;6.47;1.50;;;;;;;16.55;37.07;97346.69;5040939;28;20922;-71
2023/04/11 10:09:58;;;;;;;6.23;1.53;;;;;;;16.83;37.53;97351.25;5029891;28;20991;-70
2023/04/11 10:12:30;;;;;;;6.17;1.20;;;;;;;17.14;37.74;97343.03;5040563;28;20425;-70
2023/04/11 10:14:56;;;;;;;4.10;1.20;;;;;;;17.28;37.02;97362.47;5039259;28;20190;-70
2023/04/11 10:17:21;;;;;;;4.97;1.40;;;;;;;17.13;36.37;97361.75;5038447;28;20827;-71
2023/04/11 10:19:48;;;;;;;7.50;1.77;;;;;;;17.20;36.61;97367.91;5047275;28;20198;-71
2023/04/11 10:22:45;;;;;;;5.47;1.53;;;;;;;17.39;36.30;97366.44;5040714;28;20241;-72
2023/04/11 10:25:15;;;;;;;2.57;1.30;;;;;;;17.29;36.43;97369.41;5045778;28;20569;-70
2023/04/11 10:27:52;;;;;;;3.10;1.13;;;;;;;17.17;36.44;97368.28;5046690;28;20436;-71
2023/04/11 10:30:18;;;;;;;5.27;1.33;;;;;;;17.18;36.95;97375.22;5035944;28;21007;-70
2023/04/11 10:33:12;;;;;;;7.27;1.40;;;;;;;16.93;36.93;97370.28;5020209;28;20434;-70
2023/04/11 10:35:57;;;;;;;7.53;1.50;;;;;;;16.71;39.13;97375.56;5036747;28;20210;-70
2023/04/11 10:38:45;;;;;;;3.20;1.03;;;;;;;16.84;39.77;97371.44;5041317;28;20487;-70
2023/04/11 10:41:26;;;;;;;3.80;1.30;;;;;;;17.22;39.77;97381.78;5046907;28;20940;-70
2023/04/11 10:44:19;;;;;;;3.40;1.10;;;;;;;17.46;39.04;97377.09;5039789;28;20464;-70
2023/04/11 10:46:50;;;;;;;4.20;1.37;;;;;;;17.63;37.49;97372.31;5053556;28;20419;-70
2023/04/11 10:49:31;;;;;;;3.37;1.23;;;;;;;17.84;35.76;97383.84;5052300;28;20422;-71
2023/04/11 10:52:20;;;;;;;3.23;1.50;;;;;;;17.84;36.28;97379.41;5045644;28;20495;-71
2023/04/11 10:54:46;;;;;;;4.73;1.43;;;;;;;17.91;34.88;97369.63;5042634;28;20427;-70
2023/04/11 10:57:12;;;;;;;4.70;1.43;;;;;;;17.80;33.93;97370.19;5047509;28;20873;-70
2023/04/11 10:59:37;;;;;;;2.73;1.30;;;;;;;17.76;34.64;97372.41;5029093;28;20542;-72
2023/04/11 11:02:03;;;;;;;2.97;1.23;;;;;;;17.67;34.56;97368.28;5040323;28;20199;-69
2023/04/11 11:04:36;;;;;;;5.90;1.30;;;;;;;17.52;34.81;97375.50;5033127;28;20212;-70
2023/04/11 11:07:03;;;;;;;4.70;1.60;;;;;;;17.39;35.33;97381.53;5032978;28;20676;-69
2023/04/11 11:09:29;;;;;;;4.60;1.47;;;;;;;17.17;35.72;97378.88;5037415;28;20847;-70
2023/04/11 11:12:07;;;;;;;5.67;1.87;;;;;;;17.11;36.77;97384.97;5034694;28;20432;-69
2023/04/11 11:14:33;;;;;;;6.30;1.47;;;;;;;17.35;36.78;97381.06;5041726;28;20483;-70
2023/04/11 11:16:59;;;;;;;5.80;1.57;;;;;;;17.40;36.49;97383.13;5031735;28;20419;-70
2023/04/11 11:19:25;;;;;;;4.63;1.30;;;;;;;17.56;36.64;97376.75;5040595;28;20178;-70
2023/04/11 11:21:50;;;;;;;2.90;1.43;;;;;;;17.05;36.54;97370.66;5046229;28;20426;-70
2023/04/11 11:24:23;;;;;;;7.87;1.50;;;;;;;17.12;34.18;97360.94;5056553;28;20260;-70
2023/04/11 11:26:49;;;;;;;5.63;1.73;;;;;;;17.44;34.23;97379.94;5039886;28;20209;-70
2023/04/11 11:29:14;;;;;;;4.20;1.50;;;;;;;17.43;34.00;97362.41;5052251;28;20431;-70
2023/04/11 11:31:44;;;;;;;3.47;1.50;;;;;;;17.36;34.23;97377.41;5039894;28;20241;-71
2023/04/11 11:34:10;;;;;;;3.43;1.17;;;;;;;17.42;33.43;97370.53;5047875;28;20346;-70